Time;durP1;ratioP1;P1;durP2;ratioP2;P2;SDS_P1;SDS_P2;PMS_P1;PMS_P2;Temp;Humidity;BMP_temperature;BMP_pressure;BME280_temperature;BME280_humidity;BME280_pressure;Samples;Min_cycle;Max_cycle;Signal;HPM_P1;HPM_P2
2021/09/02 00:00:03;;;;;;;4.53;2.90;;;;;;;;;;4953321;29;20043;-78
2021/09/02 00:02:29;;;;;;;6.18;3.70;;;;;;;;;;4963379;28;20031;-83
2021/09/02 00:04:55;;;;;;;5.57;3.33;;;;;;;;;;4972131;28;20038;-78
2021/09/02 00:07:22;;;;;;;7.55;3.88;;;;;;;;;;4971239;28;20384;-77
2021/09/02 00:09:48;;;;;;;5.50;3.30;;;;;;;;;;4972157;28;20121;-81
2021/09/02 00:12:14;;;;;;;5.90;3.15;;;;;;;;;;4971393;28;20031;-79
2021/09/02 00:14:40;;;;;;;4.43;3.30;;;;;;;;;;4972184;28;20043;-77
2021/09/02 00:17:06;;;;;;;5.70;3.70;;;;;;;;;;4972121;28;20035;-76
2021/09/02 00:19:33;;;;;;;5.10;3.60;;;;;;;;;;4970543;28;20035;-77
2021/09/02 00:21:59;;;;;;;4.90;3.63;;;;;;;;;;4972376;28;20506;-80
2021/09/02 00:24:25;;;;;;;7.50;3.90;;;;;;;;;;4971783;28;20054;-80
2021/09/02 00:26:51;;;;;;;4.65;3.50;;;;;;;;;;4971716;28;20081;-79
2021/09/02 00:29:17;;;;;;;5.40;3.65;;;;;;;;;;4953224;28;20031;-80
2021/09/02 00:31:43;;;;;;;6.32;3.53;;;;;;;;;;4951669;29;20451;-78
2021/09/02 00:34:09;;;;;;;4.80;3.53;;;;;;;;;;4951570;29;20487;-74
2021/09/02 00:36:35;;;;;;;5.47;3.53;;;;;;;;;;4969580;28;20159;-80
2021/09/02 00:39:01;;;;;;;5.05;3.50;;;;;;;;;;4972099;28;20052;-83
2021/09/02 00:41:27;;;;;;;5.00;3.80;;;;;;;;;;4971539;28;20122;-83
2021/09/02 00:43:53;;;;;;;5.20;3.65;;;;;;;;;;4971841;28;20109;-84
2021/09/02 00:46:19;;;;;;;5.32;3.55;;;;;;;;;;4971960;28;20031;-83
2021/09/02 00:48:46;;;;;;;6.57;3.78;;;;;;;;;;4972101;28;20051;-84
2021/09/02 00:51:13;;;;;;;6.63;3.28;;;;;;;;;;4970670;28;20030;-82
2021/09/02 00:53:39;;;;;;;4.25;3.15;;;;;;;;;;4971877;28;20030;-76
2021/09/02 00:56:05;;;;;;;4.53;3.53;;;;;;;;;;4972593;28;20502;-85
2021/09/02 00:58:31;;;;;;;6.35;4.07;;;;;;;;;;4971821;28;20125;-84
2021/09/02 01:00:57;;;;;;;6.70;4.10;;;;;;;;;;4972175;28;20035;-85
2021/09/02 01:03:23;;;;;;;6.20;4.05;;;;;;;;;;4972032;28;20029;-84
2021/09/02 01:05:51;;;;;;;5.10;3.63;;;;;;;;;;4972225;28;20026;-84
2021/09/02 01:08:17;;;;;;;5.60;4.32;;;;;;;;;;4971513;28;20117;-85
2021/09/02 01:10:45;;;;;;;5.43;3.60;;;;;;;;;;4970785;28;20019;-84
2021/09/02 01:13:11;;;;;;;4.20;3.40;;;;;;;;;;4969312;28;20495;-83
2021/09/02 01:15:37;;;;;;;5.15;3.45;;;;;;;;;;4971570;28;20027;-80
2021/09/02 01:18:03;;;;;;;5.82;3.97;;;;;;;;;;4971774;28;20026;-81
2021/09/02 01:20:30;;;;;;;5.90;3.90;;;;;;;;;;4974198;28;20399;-83
2021/09/02 01:22:58;;;;;;;5.50;3.88;;;;;;;;;;4975279;28;20034;-83
2021/09/02 01:25:28;;;;;;;5.60;3.40;;;;;;;;;;4974065;28;20102;-85
2021/09/02 01:27:55;;;;;;;5.25;3.80;;;;;;;;;;4974946;28;20030;-83
2021/09/02 01:30:22;;;;;;;6.03;4.03;;;;;;;;;;4975004;28;20050;-80
2021/09/02 01:32:49;;;;;;;5.90;3.75;;;;;;;;;;4975047;28;20034;-81
2021/09/02 01:35:15;;;;;;;5.22;3.75;;;;;;;;;;4973958;28;20390;-84
2021/09/02 01:37:45;;;;;;;7.35;4.43;;;;;;;;;;4975382;28;20053;-87
2021/09/02 01:40:13;;;;;;;5.63;3.67;;;;;;;;;;4974552;28;20130;-84
2021/09/02 01:42:39;;;;;;;6.43;3.75;;;;;;;;;;4974405;28;20041;-76
2021/09/02 01:45:06;;;;;;;6.75;3.72;;;;;;;;;;4975156;28;20121;-82
2021/09/02 01:47:32;;;;;;;4.82;3.45;;;;;;;;;;4974215;28;20058;-84
2021/09/02 01:50:04;;;;;;;5.40;4.05;;;;;;;;;;4974830;28;20084;-79
2021/09/02 01:52:30;;;;;;;6.90;4.18;;;;;;;;;;4974478;28;20034;-83
2021/09/02 01:54:56;;;;;;;5.68;4.13;;;;;;;;;;4974624;28;20023;-80
2021/09/02 01:57:22;;;;;;;5.22;3.78;;;;;;;;;;4974586;28;20479;-79
2021/09/02 01:59:48;;;;;;;5.97;3.63;;;;;;;;;;4974276;28;20031;-84
2021/09/02 02:02:14;;;;;;;6.03;3.67;;;;;;;;;;4974288;28;20023;-79
2021/09/02 02:04:40;;;;;;;4.60;3.47;;;;;;;;;;4973093;28;20030;-79
2021/09/02 02:07:06;;;;;;;6.10;3.80;;;;;;;;;;4974895;28;20035;-78
2021/09/02 02:09:32;;;;;;;5.60;3.75;;;;;;;;;;4974046;28;20023;-74
2021/09/02 02:11:58;;;;;;;6.38;4.00;;;;;;;;;;4973832;28;20329;-84
2021/09/02 02:14:25;;;;;;;6.55;4.10;;;;;;;;;;4973911;28;20034;-84
2021/09/02 02:16:51;;;;;;;4.75;3.38;;;;;;;;;;4974421;28;20066;-80
2021/09/02 02:19:17;;;;;;;4.65;3.42;;;;;;;;;;4973709;28;20070;-79
2021/09/02 02:21:43;;;;;;;4.72;3.40;;;;;;;;;;4974194;28;20030;-77
2021/09/02 02:24:09;;;;;;;6.07;3.67;;;;;;;;;;4974276;28;20030;-77
2021/09/02 02:26:35;;;;;;;5.38;3.63;;;;;;;;;;4974053;28;20058;-77
2021/09/02 02:29:01;;;;;;;7.35;3.80;;;;;;;;;;4973781;28;20034;-84
2021/09/02 02:31:27;;;;;;;6.13;3.42;;;;;;;;;;4972850;28;20390;-77
2021/09/02 02:33:53;;;;;;;4.40;2.97;;;;;;;;;;4974156;28;20031;-80
2021/09/02 02:36:19;;;;;;;4.97;3.53;;;;;;;;;;4973852;28;20023;-83
2021/09/02 02:38:45;;;;;;;5.93;3.65;;;;;;;;;;4973463;28;20034;-79
2021/09/02 02:41:11;;;;;;;4.10;3.00;;;;;;;;;;4971640;28;20035;-78
2021/09/02 02:43:37;;;;;;;5.70;3.70;;;;;;;;;;4972879;28;20038;-80
2021/09/02 02:46:03;;;;;;;5.45;3.88;;;;;;;;;;4973630;28;20027;-79
2021/09/02 02:48:29;;;;;;;4.35;3.15;;;;;;;;;;4973471;28;20412;-83
2021/09/02 02:50:55;;;;;;;5.65;3.08;;;;;;;;;;4973402;28;20027;-83
2021/09/02 02:53:21;;;;;;;4.85;2.72;;;;;;;;;;4973383;28;20080;-84
2021/09/02 02:55:47;;;;;;;4.43;2.90;;;;;;;;;;4972760;28;20042;-83
2021/09/02 02:58:13;;;;;;;4.88;3.38;;;;;;;;;;4972555;28;20403;-82
2021/09/02 03:00:39;;;;;;;4.10;3.10;;;;;;;;;;4973447;28;20031;-78
2021/09/02 03:03:05;;;;;;;5.22;3.35;;;;;;;;;;4973720;28;20027;-86
2021/09/02 03:05:31;;;;;;;4.00;2.88;;;;;;;;;;4973178;28;20027;-84
2021/09/02 03:07:57;;;;;;;5.47;3.35;;;;;;;;;;4973476;28;20041;-80
2021/09/02 03:10:23;;;;;;;4.40;3.00;;;;;;;;;;4971893;28;20493;-86
2021/09/02 03:12:49;;;;;;;5.38;3.03;;;;;;;;;;4971861;28;20084;-85
2021/09/02 03:15:15;;;;;;;6.00;3.25;;;;;;;;;;4971723;28;20030;-84
2021/09/02 03:17:41;;;;;;;4.22;2.75;;;;;;;;;;4972998;28;20066;-85
2021/09/02 03:20:08;;;;;;;4.68;2.90;;;;;;;;;;4973750;28;20053;-83
2021/09/02 03:22:35;;;;;;;5.97;3.53;;;;;;;;;;4973376;28;20074;-84
2021/09/02 03:25:01;;;;;;;4.07;2.90;;;;;;;;;;4971399;28;20081;-84
2021/09/02 03:27:26;;;;;;;4.45;3.30;;;;;;;;;;4972566;28;20446;-84
2021/09/02 03:29:52;;;;;;;5.85;3.65;;;;;;;;;;4972873;28;20105;-83
2021/09/02 03:32:19;;;;;;;4.40;2.83;;;;;;;;;;4972670;28;20102;-81
2021/09/02 03:34:45;;;;;;;5.10;3.35;;;;;;;;;;4973389;28;20031;-87
2021/09/02 03:37:11;;;;;;;4.78;2.80;;;;;;;;;;4971424;28;20027;-86
2021/09/02 03:39:37;;;;;;;5.65;3.00;;;;;;;;;;4973422;28;20047;-83
2021/09/02 03:42:03;;;;;;;4.00;2.97;;;;;;;;;;4972412;28;20031;-80
2021/09/02 03:44:29;;;;;;;5.88;2.83;;;;;;;;;;4970837;28;20525;-83
2021/09/02 03:46:55;;;;;;;5.03;2.90;;;;;;;;;;4972256;28;20027;-84
2021/09/02 03:49:21;;;;;;;4.15;2.85;;;;;;;;;;4971317;28;20031;-84
2021/09/02 03:51:47;;;;;;;4.45;3.00;;;;;;;;;;4972455;28;20022;-84
2021/09/02 03:54:13;;;;;;;3.97;2.67;;;;;;;;;;4972450;28;20062;-84
2021/09/02 03:56:39;;;;;;;3.78;2.53;;;;;;;;;;4971113;28;20029;-74
2021/09/02 03:59:05;;;;;;;4.18;2.83;;;;;;;;;;4972877;28;20453;-80
2021/09/02 04:01:31;;;;;;;4.82;2.83;;;;;;;;;;4971822;28;20068;-79
2021/09/02 04:03:57;;;;;;;3.35;2.40;;;;;;;;;;4972153;28;20077;-79
2021/09/02 04:06:23;;;;;;;5.20;3.10;;;;;;;;;;4971822;28;20376;-77
2021/09/02 04:08:50;;;;;;;4.07;2.85;;;;;;;;;;4972457;28;20039;-83
2021/09/02 04:11:16;;;;;;;5.15;2.90;;;;;;;;;;4972153;28;20403;-83
2021/09/02 04:13:42;;;;;;;5.75;2.80;;;;;;;;;;4972831;28;20069;-84
2021/09/02 04:16:08;;;;;;;3.90;2.78;;;;;;;;;;4972690;28;20019;-78
2021/09/02 04:18:34;;;;;;;4.07;2.50;;;;;;;;;;4972224;28;20045;-83
2021/09/02 04:21:04;;;;;;;3.90;2.67;;;;;;;;;;4972158;28;20102;-80
2021/09/02 04:23:30;;;;;;;4.28;3.30;;;;;;;;;;4971955;28;20126;-78
2021/09/02 04:25:56;;;;;;;4.20;2.80;;;;;;;;;;4970557;28;20463;-80
2021/09/02 04:28:22;;;;;;;4.28;2.92;;;;;;;;;;4972278;28;20054;-80
2021/09/02 04:30:48;;;;;;;6.20;2.92;;;;;;;;;;4972477;28;20037;-81
2021/09/02 04:33:14;;;;;;;3.90;2.58;;;;;;;;;;4970445;28;20398;-75
2021/09/02 04:35:40;;;;;;;4.82;2.78;;;;;;;;;;4972448;28;20031;-78
2021/09/02 04:38:06;;;;;;;4.95;2.85;;;;;;;;;;4972484;28;20110;-84
2021/09/02 04:40:32;;;;;;;5.40;3.03;;;;;;;;;;4972391;28;20183;-76
2021/09/02 04:42:58;;;;;;;5.25;2.75;;;;;;;;;;4972676;28;20034;-75
2021/09/02 04:45:24;;;;;;;6.20;3.03;;;;;;;;;;4971779;28;20031;-76
2021/09/02 04:47:50;;;;;;;3.50;2.20;;;;;;;;;;4972203;28;20050;-81
2021/09/02 04:50:17;;;;;;;4.07;3.22;;;;;;;;;;4972220;28;20033;-86
2021/09/02 04:52:43;;;;;;;3.95;2.75;;;;;;;;;;4971814;28;20026;-79
2021/09/02 04:55:13;;;;;;;3.83;2.60;;;;;;;;;;4974185;28;20035;-74
2021/09/02 04:57:40;;;;;;;3.70;2.45;;;;;;;;;;4975391;28;20395;-76
2021/09/02 05:00:06;;;;;;;4.50;2.97;;;;;;;;;;4975572;28;20125;-79
2021/09/02 05:02:32;;;;;;;4.40;2.60;;;;;;;;;;4975348;28;20030;-79
2021/09/02 05:04:59;;;;;;;5.45;3.33;;;;;;;;;;4974503;28;20035;-85
2021/09/02 05:07:25;;;;;;;4.25;2.70;;;;;;;;;;4975194;28;20101;-86
2021/09/02 05:09:51;;;;;;;3.40;2.60;;;;;;;;;;4973866;28;20495;-86
2021/09/02 05:12:17;;;;;;;3.92;2.53;;;;;;;;;;4974802;28;20035;-86
2021/09/02 05:14:44;;;;;;;4.78;3.00;;;;;;;;;;4975541;28;20026;-85
2021/09/02 05:17:10;;;;;;;5.00;2.58;;;;;;;;;;4974643;28;20487;-83
2021/09/02 05:19:36;;;;;;;4.05;2.67;;;;;;;;;;4975667;28;20373;-85
2021/09/02 05:22:02;;;;;;;4.38;2.63;;;;;;;;;;4974859;28;20031;-85
2021/09/02 05:24:28;;;;;;;6.10;2.70;;;;;;;;;;4973362;28;20858;-85
2021/09/02 05:26:55;;;;;;;4.60;2.72;;;;;;;;;;4974815;28;20031;-83
2021/09/02 05:29:21;;;;;;;4.10;2.60;;;;;;;;;;4973821;28;20052;-86
2021/09/02 05:31:47;;;;;;;3.70;2.60;;;;;;;;;;4975337;28;20474;-85
2021/09/02 05:34:13;;;;;;;3.05;2.38;;;;;;;;;;4975024;28;20035;-85
2021/09/02 05:36:39;;;;;;;3.63;2.35;;;;;;;;;;4974943;28;20099;-82
2021/09/02 05:39:05;;;;;;;3.80;2.45;;;;;;;;;;4974926;28;20039;-84
2021/09/02 05:41:32;;;;;;;5.07;2.63;;;;;;;;;;4974137;28;20502;-84
2021/09/02 05:43:58;;;;;;;4.75;2.60;;;;;;;;;;4974944;28;20027;-82
2021/09/02 05:46:24;;;;;;;4.70;2.80;;;;;;;;;;4974676;28;20023;-81
2021/09/02 05:48:50;;;;;;;4.88;2.85;;;;;;;;;;4974832;28;20062;-85
2021/09/02 05:51:16;;;;;;;3.83;2.47;;;;;;;;;;4972662;28;20430;-84
2021/09/02 05:53:42;;;;;;;4.28;2.38;;;;;;;;;;4974109;28;20023;-85
2021/09/02 05:56:08;;;;;;;3.67;2.78;;;;;;;;;;4974028;28;20030;-86
2021/09/02 05:58:34;;;;;;;4.20;2.55;;;;;;;;;;4974666;28;20031;-87
2021/09/02 06:01:00;;;;;;;3.55;2.53;;;;;;;;;;4974188;28;20126;-85
2021/09/02 06:03:28;;;;;;;3.85;2.45;;;;;;;;;;4974231;28;20031;-83
2021/09/02 06:05:54;;;;;;;4.25;2.75;;;;;;;;;;4974031;28;20034;-78
2021/09/02 06:08:20;;;;;;;3.85;2.58;;;;;;;;;;4974219;28;20029;-78
2021/09/02 06:10:46;;;;;;;6.57;2.40;;;;;;;;;;4973954;28;20023;-78
2021/09/02 06:13:12;;;;;;;2.95;2.30;;;;;;;;;;4973146;28;20037;-79
2021/09/02 06:15:38;;;;;;;3.92;2.05;;;;;;;;;;4974540;28;20023;-81
2021/09/02 06:18:04;;;;;;;4.50;2.55;;;;;;;;;;4974072;28;20537;-85
2021/09/02 06:20:30;;;;;;;4.63;2.60;;;;;;;;;;4973713;28;20038;-85
2021/09/02 06:22:56;;;;;;;6.75;2.50;;;;;;;;;;4973090;28;20030;-78
2021/09/02 06:25:22;;;;;;;4.97;2.67;;;;;;;;;;4973193;28;20511;-77
2021/09/02 06:27:48;;;;;;;4.72;2.55;;;;;;;;;;4972732;28;20027;-76
2021/09/02 06:30:14;;;;;;;4.15;3.00;;;;;;;;;;4973343;28;20034;-76
2021/09/02 06:32:40;;;;;;;5.35;3.33;;;;;;;;;;4973763;28;20117;-74
2021/09/02 06:35:07;;;;;;;7.60;3.08;;;;;;;;;;4973887;28;20491;-76
2021/09/02 06:37:33;;;;;;;5.45;2.92;;;;;;;;;;4973472;28;20043;-75
2021/09/02 06:39:59;;;;;;;4.47;3.20;;;;;;;;;;4973722;28;20049;-73
2021/09/02 06:42:25;;;;;;;7.88;2.72;;;;;;;;;;4973054;28;20039;-74
2021/09/02 06:44:51;;;;;;;6.93;2.95;;;;;;;;;;4973675;28;20450;-73
2021/09/02 06:47:17;;;;;;;7.72;3.10;;;;;;;;;;4972398;28;20031;-75
2021/09/02 06:49:43;;;;;;;8.70;2.78;;;;;;;;;;4972714;28;20041;-74
2021/09/02 06:52:08;;;;;;;7.75;3.30;;;;;;;;;;4972023;28;20539;-76
2021/09/02 06:54:34;;;;;;;9.68;3.88;;;;;;;;;;4973799;28;20027;-76
2021/09/02 06:57:00;;;;;;;4.68;2.30;;;;;;;;;;4973458;28;20542;-73
2021/09/02 06:59:26;;;;;;;7.22;3.17;;;;;;;;;;4973193;28;20038;-73
2021/09/02 07:01:52;;;;;;;7.97;3.67;;;;;;;;;;4973520;28;20031;-73
2021/09/02 07:04:18;;;;;;;8.10;4.97;;;;;;;;;;4973060;28;20022;-73
2021/09/02 07:06:44;;;;;;;10.27;6.30;;;;;;;;;;4973346;28;20027;-74
2021/09/02 07:09:10;;;;;;;16.45;8.20;;;;;;;;;;4972886;28;20027;-73
2021/09/02 07:11:36;;;;;;;14.50;7.32;;;;;;;;;;4973492;28;20027;-73
2021/09/02 07:14:04;;;;;;;13.30;7.03;;;;;;;;;;4971427;28;20042;-72
2021/09/02 07:16:30;;;;;;;15.70;7.15;;;;;;;;;;4972465;28;20026;-74
2021/09/02 07:18:56;;;;;;;14.77;7.32;;;;;;;;;;4973054;28;20395;-73
2021/09/02 07:21:22;;;;;;;15.55;6.60;;;;;;;;;;4972831;28;20034;-72
2021/09/02 07:23:48;;;;;;;16.30;7.63;;;;;;;;;;4973009;28;20026;-75
2021/09/02 07:26:14;;;;;;;20.85;6.85;;;;;;;;;;4972832;28;20077;-72
2021/09/02 07:28:40;;;;;;;21.60;6.97;;;;;;;;;;4973245;28;20019;-73
2021/09/02 07:31:07;;;;;;;95.20;16.10;;;;;;;;;;4973271;28;20026;-73
2021/09/02 07:33:32;;;;;;;32.63;8.68;;;;;;;;;;4971323;28;20027;-74
2021/09/02 07:35:58;;;;;;;29.45;10.13;;;;;;;;;;4972706;28;20037;-73
2021/09/02 07:38:25;;;;;;;24.15;8.50;;;;;;;;;;4972432;28;20026;-73
2021/09/02 07:40:51;;;;;;;21.92;7.63;;;;;;;;;;4972774;28;20058;-73
2021/09/02 07:43:17;;;;;;;15.45;7.63;;;;;;;;;;4972377;28;20499;-72
2021/09/02 07:45:43;;;;;;;20.48;8.27;;;;;;;;;;4972662;28;20109;-74
2021/09/02 07:48:09;;;;;;;18.15;8.55;;;;;;;;;;4972727;28;20031;-73
2021/09/02 07:50:35;;;;;;;15.45;9.13;;;;;;;;;;4972853;28;20078;-73
2021/09/02 07:53:01;;;;;;;21.45;9.30;;;;;;;;;;4972626;28;20148;-73
2021/09/02 07:55:27;;;;;;;18.17;9.70;;;;;;;;;;4972151;28;20067;-74
2021/09/02 07:57:53;;;;;;;17.50;8.75;;;;;;;;;;4972550;28;20023;-74
2021/09/02 08:00:19;;;;;;;19.90;9.27;;;;;;;;;;4972199;28;20453;-75
2021/09/02 08:02:46;;;;;;;19.35;9.82;;;;;;;;;;4972491;28;20026;-75
2021/09/02 08:05:13;;;;;;;15.50;9.20;;;;;;;;;;4970783;28;20134;-75
2021/09/02 08:07:53;;;;;;;20.50;9.63;;;;;;;;;;4972567;28;20049;-75
2021/09/02 08:10:20;;;;;;;16.30;9.15;;;;;;;;;;4972163;28;20019;-75
2021/09/02 08:12:46;;;;;;;22.83;10.55;;;;;;;;;;4972356;28;20034;-75
2021/09/02 08:15:12;;;;;;;15.23;9.00;;;;;;;;;;4972031;28;20019;-75
2021/09/02 08:17:39;;;;;;;24.05;10.63;;;;;;;;;;4972628;28;20114;-75
2021/09/02 08:20:06;;;;;;;19.30;10.40;;;;;;;;;;4972569;28;20038;-76
2021/09/02 08:22:32;;;;;;;19.40;9.40;;;;;;;;;;4972134;28;20206;-76
2021/09/02 08:24:58;;;;;;;22.00;10.15;;;;;;;;;;4971031;28;20027;-76
2021/09/02 08:27:24;;;;;;;17.42;9.48;;;;;;;;;;4972016;28;20045;-76
2021/09/02 08:29:50;;;;;;;18.92;9.77;;;;;;;;;;4973236;28;20483;-76
2021/09/02 08:32:16;;;;;;;22.65;10.70;;;;;;;;;;4974599;28;20472;-76
2021/09/02 08:34:42;;;;;;;21.08;10.02;;;;;;;;;;4976143;28;20038;-76
2021/09/02 08:37:09;;;;;;;19.27;9.52;;;;;;;;;;4975046;28;20484;-76
2021/09/02 08:39:35;;;;;;;17.80;10.43;;;;;;;;;;4976237;28;20138;-76
2021/09/02 08:42:03;;;;;;;18.13;10.50;;;;;;;;;;4975993;28;20085;-76
2021/09/02 08:44:29;;;;;;;19.88;10.27;;;;;;;;;;4974505;28;20085;-73
2021/09/02 08:46:55;;;;;;;18.20;10.38;;;;;;;;;;4975790;28;20082;-74
2021/09/02 08:49:22;;;;;;;20.00;11.60;;;;;;;;;;4975547;28;20038;-73
2021/09/02 08:51:49;;;;;;;22.45;11.82;;;;;;;;;;4975790;28;20027;-75
2021/09/02 08:54:15;;;;;;;19.63;11.27;;;;;;;;;;4975533;28;20398;-74
2021/09/02 08:56:41;;;;;;;20.73;12.90;;;;;;;;;;4975693;28;20054;-74
2021/09/02 08:59:07;;;;;;;22.58;12.68;;;;;;;;;;4975827;28;20096;-75
2021/09/02 09:01:33;;;;;;;26.40;13.23;;;;;;;;;;4973991;28;20081;-74
2021/09/02 09:04:08;;;;;;;21.33;12.95;;;;;;;;;;4975579;28;20030;-74
2021/09/02 09:06:34;;;;;;;23.75;13.13;;;;;;;;;;4975814;28;20031;-74
2021/09/02 09:09:00;;;;;;;23.88;13.30;;;;;;;;;;4975531;28;20065;-75
2021/09/02 09:11:30;;;;;;;20.48;13.75;;;;;;;;;;4975293;28;20023;-75
2021/09/02 09:14:06;;;;;;;22.00;12.70;;;;;;;;;;4974120;28;20053;-75
2021/09/02 09:17:06;;;;;;;18.80;13.50;;;;;;;;;;4975153;28;20027;-74
2021/09/02 09:19:54;;;;;;;22.38;13.35;;;;;;;;;;4942981;28;20446;-75
2021/09/02 09:22:23;;;;;;;27.17;14.00;;;;;;;;;;4975050;28;20482;-75
2021/09/02 09:24:56;;;;;;;26.55;12.65;;;;;;;;;;4975232;28;20022;-75
2021/09/02 09:27:38;;;;;;;28.25;13.77;;;;;;;;;;4975035;28;20035;-75
2021/09/02 09:30:08;;;;;;;24.63;13.50;;;;;;;;;;4975591;28;20529;-76
2021/09/02 09:32:38;;;;;;;20.10;13.23;;;;;;;;;;4974886;28;20080;-76
2021/09/02 09:35:04;;;;;;;21.98;13.57;;;;;;;;;;4975172;28;20038;-75
2021/09/02 09:37:30;;;;;;;29.65;14.70;;;;;;;;;;4974682;28;20552;-73
2021/09/02 09:40:14;;;;;;;20.75;12.30;;;;;;;;;;4974404;28;20451;-73
2021/09/02 09:42:40;;;;;;;22.58;12.90;;;;;;;;;;4974733;28;20027;-73
2021/09/02 09:45:10;;;;;;;19.85;11.88;;;;;;;;;;4975232;28;20034;-73
2021/09/02 09:47:37;;;;;;;21.48;12.88;;;;;;;;;;4975135;28;20031;-73
2021/09/02 09:50:09;;;;;;;21.40;13.90;;;;;;;;;;4974735;28;20040;-73
2021/09/02 09:52:41;;;;;;;20.30;13.15;;;;;;;;;;4975032;28;20523;-73
2021/09/02 09:55:07;;;;;;;22.63;13.73;;;;;;;;;;4975143;28;20023;-74
2021/09/02 09:57:34;;;;;;;21.73;13.85;;;;;;;;;;4974392;28;20038;-75
2021/09/02 10:00:01;;;;;;;25.98;14.30;;;;;;;;;;4974401;28;20051;-75
2021/09/02 10:02:27;;;;;;;22.23;13.65;;;;;;;;;;4974330;28;20085;-76
2021/09/02 10:04:53;;;;;;;18.63;12.55;;;;;;;;;;4974429;28;20022;-76
2021/09/02 10:07:21;;;;;;;24.45;13.70;;;;;;;;;;4974260;28;20391;-76
2021/09/02 10:09:47;;;;;;;22.50;13.65;;;;;;;;;;4973173;28;20035;-74
2021/09/02 10:12:13;;;;;;;24.25;12.48;;;;;;;;;;4974090;28;20034;-75
2021/09/02 10:14:39;;;;;;;17.42;13.07;;;;;;;;;;4973122;28;20484;-75
2021/09/02 10:17:05;;;;;;;17.48;11.45;;;;;;;;;;4974711;28;20051;-75
2021/09/02 10:19:33;;;;;;;22.40;13.10;;;;;;;;;;4972057;28;20035;-75
2021/09/02 10:22:01;;;;;;;20.92;12.82;;;;;;;;;;4972582;28;20027;-76
2021/09/02 10:24:41;;;;;;;20.58;12.75;;;;;;;;;;4972647;28;20027;-76
2021/09/02 10:27:28;;;;;;;20.85;13.57;;;;;;;;;;4974365;28;20030;-76
2021/09/02 10:29:54;;;;;;;23.13;12.57;;;;;;;;;;4944304;28;20035;-76
2021/09/02 10:32:23;;;;;;;22.65;12.38;;;;;;;;;;4973697;28;20460;-76
2021/09/02 10:34:49;;;;;;;23.35;12.23;;;;;;;;;;4974012;28;20577;-76
2021/09/02 10:37:34;;;;;;;24.17;13.65;;;;;;;;;;4973640;28;20078;-75
2021/09/02 10:40:29;;;;;;;20.15;12.63;;;;;;;;;;4973733;28;20042;-75
2021/09/02 10:42:57;;;;;;;24.75;11.68;;;;;;;;;;4973776;28;20074;-76
2021/09/02 10:45:29;;;;;;;19.58;12.25;;;;;;;;;;4973458;28;20078;-76
2021/09/02 10:47:57;;;;;;;22.08;11.35;;;;;;;;;;4973611;28;20015;-76
2021/09/02 10:50:24;;;;;;;18.42;11.88;;;;;;;;;;4973327;28;20077;-76
2021/09/02 10:52:50;;;;;;;22.90;11.18;;;;;;;;;;4972843;28;20033;-74
2021/09/02 10:55:28;;;;;;;20.85;11.15;;;;;;;;;;4970064;28;20030;-76
2021/09/02 10:57:54;;;;;;;19.60;10.00;;;;;;;;;;4973571;28;20434;-76
2021/09/02 11:00:39;;;;;;;18.58;9.23;;;;;;;;;;4967613;28;20035;-76
2021/09/02 11:03:15;;;;;;;14.45;8.43;;;;;;;;;;4962134;28;20051;-75
2021/09/02 11:05:42;;;;;;;14.05;9.00;;;;;;;;;;4961419;28;20065;-76
2021/09/02 11:08:08;;;;;;;15.50;9.48;;;;;;;;;;4962358;28;20390;-76
2021/09/02 11:10:34;;;;;;;16.67;8.02;;;;;;;;;;4963150;28;20399;-75
2021/09/02 11:13:03;;;;;;;16.00;8.52;;;;;;;;;;4961015;28;20034;-76
2021/09/02 11:15:30;;;;;;;17.75;8.15;;;;;;;;;;4961543;28;20098;-76
2021/09/02 11:17:56;;;;;;;12.65;7.68;;;;;;;;;;4962830;28;20062;-74
2021/09/02 11:20:26;;;;;;;16.33;8.23;;;;;;;;;;4960844;28;20090;-76
2021/09/02 11:23:06;;;;;;;11.55;7.20;;;;;;;;;;4961411;28;20118;-75
2021/09/02 11:25:38;;;;;;;13.35;7.28;;;;;;;;;;4959970;28;20098;-76
2021/09/02 11:28:04;;;;;;;12.25;7.35;;;;;;;;;;4960300;28;20027;-76
2021/09/02 11:30:33;;;;;;;13.60;8.45;;;;;;;;;;4961809;28;20098;-76
2021/09/02 11:33:00;;;;;;;14.02;7.53;;;;;;;;;;4960662;28;20035;-76
2021/09/02 11:35:26;;;;;;;17.05;7.97;;;;;;;;;;4961662;28;20509;-75
2021/09/02 11:37:53;;;;;;;13.18;7.68;;;;;;;;;;4962175;28;20066;-76
2021/09/02 11:40:24;;;;;;;14.43;7.93;;;;;;;;;;4960550;28;20090;-77
2021/09/02 11:42:50;;;;;;;10.98;6.82;;;;;;;;;;4961344;28;20109;-75
2021/09/02 11:45:17;;;;;;;11.60;7.53;;;;;;;;;;4962084;28;20057;-75
2021/09/02 11:47:43;;;;;;;11.02;7.05;;;;;;;;;;4960768;28;20030;-74
2021/09/02 11:50:09;;;;;;;12.85;7.55;;;;;;;;;;4966366;28;20034;-74
2021/09/02 11:52:54;;;;;;;11.35;6.97;;;;;;;;;;4971711;28;20054;-74
2021/09/02 11:55:33;;;;;;;11.13;6.93;;;;;;;;;;4972379;28;20097;-75
2021/09/02 11:58:00;;;;;;;10.70;7.05;;;;;;;;;;4971345;28;20447;-73
2021/09/02 12:00:26;;;;;;;10.15;6.45;;;;;;;;;;4967529;28;20447;-73
2021/09/02 12:02:57;;;;;;;11.55;6.70;;;;;;;;;;4951801;28;20457;-75
2021/09/02 12:05:25;;;;;;;12.80;7.22;;;;;;;;;;4953038;29;20031;-75
2021/09/02 12:07:52;;;;;;;11.13;6.97;;;;;;;;;;4953180;29;20023;-75
2021/09/02 12:10:19;;;;;;;10.43;6.53;;;;;;;;;;4952918;29;20023;-75
2021/09/02 12:12:45;;;;;;;10.23;6.45;;;;;;;;;;4953204;29;20497;-75
2021/09/02 12:15:26;;;;;;;7.78;5.95;;;;;;;;;;4952814;29;20498;-73
2021/09/02 12:18:25;;;;;;;8.52;5.78;;;;;;;;;;4953083;29;20421;-75
2021/09/02 12:20:51;;;;;;;8.38;5.65;;;;;;;;;;4921001;29;20043;-76
2021/09/02 12:23:21;;;;;;;10.27;7.00;;;;;;;;;;4952799;29;20082;-76
2021/09/02 12:25:57;;;;;;;10.70;6.32;;;;;;;;;;4952961;29;20127;-75
2021/09/02 12:28:32;;;;;;;11.50;6.00;;;;;;;;;;4952854;29;20027;-76
2021/09/02 12:30:58;;;;;;;12.70;6.70;;;;;;;;;;4952957;29;20030;-76
2021/09/02 12:33:24;;;;;;;8.48;5.88;;;;;;;;;;4952663;29;20027;-75
2021/09/02 12:35:50;;;;;;;9.30;6.55;;;;;;;;;;4952918;29;20023;-74
2021/09/02 12:38:36;;;;;;;10.32;6.03;;;;;;;;;;4951214;29;20113;-74
2021/09/02 12:41:11;;;;;;;7.65;6.10;;;;;;;;;;4952773;29;20031;-75
2021/09/02 12:43:37;;;;;;;9.75;6.38;;;;;;;;;;4953298;29;20055;-76
2021/09/02 12:46:03;;;;;;;10.73;6.75;;;;;;;;;;4952856;29;20027;-75
2021/09/02 12:48:29;;;;;;;9.80;6.50;;;;;;;;;;4952543;29;20027;-75
2021/09/02 12:50:56;;;;;;;8.13;5.65;;;;;;;;;;4952765;29;20357;-73
2021/09/02 12:53:28;;;;;;;15.52;9.40;;;;;;;;;;4951308;29;20070;-73
2021/09/02 12:55:54;;;;;;;20.67;10.48;;;;;;;;;;4952708;29;20027;-74
2021/09/02 12:58:20;;;;;;;23.00;10.95;;;;;;;;;;4952388;29;20034;-76
2021/09/02 13:00:46;;;;;;;15.48;9.63;;;;;;;;;;4952641;29;20498;-74
2021/09/02 13:03:14;;;;;;;20.83;12.27;;;;;;;;;;4952435;29;20034;-74
2021/09/02 13:05:40;;;;;;;18.85;10.55;;;;;;;;;;4952703;29;20427;-73
2021/09/02 13:08:07;;;;;;;21.00;10.32;;;;;;;;;;4952908;29;20036;-73
2021/09/02 13:10:38;;;;;;;23.63;11.43;;;;;;;;;;4952311;29;20558;-74
2021/09/02 13:13:06;;;;;;;23.05;11.55;;;;;;;;;;4952846;29;20605;-76
2021/09/02 13:15:32;;;;;;;20.90;10.48;;;;;;;;;;4952624;28;20445;-75
2021/09/02 13:17:58;;;;;;;16.65;10.13;;;;;;;;;;4954763;29;20079;-75
2021/09/02 13:20:24;;;;;;;17.00;9.77;;;;;;;;;;4955740;29;20047;-75
2021/09/02 13:22:50;;;;;;;16.92;9.25;;;;;;;;;;4956098;29;20091;-77
2021/09/02 13:25:17;;;;;;;15.93;9.25;;;;;;;;;;4956017;29;20035;-78
2021/09/02 13:27:45;;;;;;;19.25;8.38;;;;;;;;;;4955905;29;20023;-75
2021/09/02 13:30:12;;;;;;;15.68;7.70;;;;;;;;;;4955553;29;20373;-75
2021/09/02 13:32:38;;;;;;;12.40;7.88;;;;;;;;;;4956278;29;20486;-75
2021/09/02 13:35:05;;;;;;;11.20;7.20;;;;;;;;;;4956113;29;20106;-75
2021/09/02 13:37:34;;;;;;;13.93;7.43;;;;;;;;;;4955532;29;20423;-75
2021/09/02 13:40:00;;;;;;;15.23;6.78;;;;;;;;;;4955650;29;20070;-74
2021/09/02 13:42:26;;;;;;;11.68;7.18;;;;;;;;;;4954084;29;20035;-78
2021/09/02 13:44:52;;;;;;;10.77;7.03;;;;;;;;;;4955541;29;20031;-74
2021/09/02 13:47:18;;;;;;;11.80;6.55;;;;;;;;;;4955385;29;20120;-75
2021/09/02 13:49:44;;;;;;;10.05;6.72;;;;;;;;;;4955562;29;20032;-75
2021/09/02 13:52:10;;;;;;;10.85;6.35;;;;;;;;;;4955256;29;20468;-75
2021/09/02 13:54:36;;;;;;;10.15;6.25;;;;;;;;;;4954483;29;20491;-78
2021/09/02 13:57:02;;;;;;;11.18;5.93;;;;;;;;;;4955458;29;20021;-76
2021/09/02 13:59:28;;;;;;;11.50;6.60;;;;;;;;;;4954970;29;20487;-75
2021/09/02 14:01:54;;;;;;;8.95;5.60;;;;;;;;;;4955316;29;20102;-76
2021/09/02 14:04:20;;;;;;;9.25;6.18;;;;;;;;;;4954976;29;20055;-77
2021/09/02 14:06:46;;;;;;;10.73;5.82;;;;;;;;;;4955200;29;20103;-76
2021/09/02 14:09:12;;;;;;;8.90;5.30;;;;;;;;;;4954920;29;20045;-74
2021/09/02 14:11:38;;;;;;;12.25;7.03;;;;;;;;;;4955503;29;20028;-74
2021/09/02 14:14:04;;;;;;;9.70;6.13;;;;;;;;;;4955159;29;20027;-76
2021/09/02 14:16:30;;;;;;;10.35;6.07;;;;;;;;;;4954885;29;20023;-75
2021/09/02 14:18:56;;;;;;;8.65;5.90;;;;;;;;;;4955055;29;20452;-78
2021/09/02 14:21:22;;;;;;;10.38;5.85;;;;;;;;;;4954680;29;20070;-79
2021/09/02 14:23:48;;;;;;;10.07;6.40;;;;;;;;;;4955052;29;20019;-78
2021/09/02 14:26:14;;;;;;;9.77;5.53;;;;;;;;;;4952450;28;20365;-78
2021/09/02 14:28:40;;;;;;;10.77;6.05;;;;;;;;;;4954545;29;20480;-79
2021/09/02 14:31:06;;;;;;;8.27;5.60;;;;;;;;;;4954988;29;20476;-76
2021/09/02 14:33:32;;;;;;;11.27;6.40;;;;;;;;;;4954516;29;20055;-75